sensor_id;sensor_type;location;lat;lon;timestamp;P1;durP1;ratioP1;P2;durP2;ratioP2
7759;SDS011;3924;48.830;9.262;2022-12-18T00:01:14;35.63;;;20.17;;
7759;SDS011;3924;48.830;9.262;2022-12-18T00:03:43;37.30;;;20.20;;
7759;SDS011;3924;48.830;9.262;2022-12-18T00:06:11;41.10;;;20.63;;
7759;SDS011;3924;48.830;9.262;2022-12-18T00:08:38;35.23;;;19.40;;
7759;SDS011;3924;48.830;9.262;2022-12-18T00:11:05;39.80;;;19.67;;
7759;SDS011;3924;48.830;9.262;2022-12-18T00:13:34;37.10;;;18.07;;
7759;SDS011;3924;48.830;9.262;2022-12-18T00:16:06;39.93;;;20.77;;
7759;SDS011;3924;48.830;9.262;2022-12-18T00:18:35;40.37;;;20.53;;
7759;SDS011;3924;48.830;9.262;2022-12-18T00:21:03;50.13;;;20.97;;
7759;SDS011;3924;48.830;9.262;2022-12-18T00:23:32;32.47;;;17.93;;
7759;SDS011;3924;48.830;9.262;2022-12-18T00:26:00;37.00;;;18.80;;
7759;SDS011;3924;48.830;9.262;2022-12-18T00:28:28;44.63;;;20.17;;
7759;SDS011;3924;48.830;9.262;2022-12-18T00:33:31;37.13;;;18.47;;
7759;SDS011;3924;48.830;9.262;2022-12-18T00:38:31;37.37;;;21.40;;
7759;SDS011;3924;48.830;9.262;2022-12-18T00:40:58;35.50;;;20.17;;
7759;SDS011;3924;48.830;9.262;2022-12-18T00:43:25;44.33;;;22.87;;
7759;SDS011;3924;48.830;9.262;2022-12-18T00:45:52;40.63;;;21.47;;
7759;SDS011;3924;48.830;9.262;2022-12-18T00:48:19;43.53;;;20.37;;
7759;SDS011;3924;48.830;9.262;2022-12-18T00:50:45;35.10;;;20.80;;
7759;SDS011;3924;48.830;9.262;2022-12-18T00:53:13;42.23;;;20.43;;
7759;SDS011;3924;48.830;9.262;2022-12-18T00:55:40;36.63;;;19.37;;
7759;SDS011;3924;48.830;9.262;2022-12-18T00:58:07;36.37;;;18.90;;
7759;SDS011;3924;48.830;9.262;2022-12-18T01:00:35;37.73;;;18.57;;
7759;SDS011;3924;48.830;9.262;2022-12-18T01:03:02;37.47;;;19.73;;
7759;SDS011;3924;48.830;9.262;2022-12-18T01:05:29;36.07;;;18.40;;
7759;SDS011;3924;48.830;9.262;2022-12-18T01:07:56;32.93;;;19.07;;
7759;SDS011;3924;48.830;9.262;2022-12-18T01:10:23;35.53;;;17.93;;
7759;SDS011;3924;48.830;9.262;2022-12-18T01:12:50;35.33;;;18.90;;
7759;SDS011;3924;48.830;9.262;2022-12-18T01:15:17;37.30;;;19.17;;
7759;SDS011;3924;48.830;9.262;2022-12-18T01:17:44;39.00;;;18.17;;
7759;SDS011;3924;48.830;9.262;2022-12-18T01:20:11;33.13;;;17.70;;
7759;SDS011;3924;48.830;9.262;2022-12-18T01:22:38;35.37;;;17.60;;
7759;SDS011;3924;48.830;9.262;2022-12-18T01:25:05;30.57;;;18.37;;
7759;SDS011;3924;48.830;9.262;2022-12-18T01:27:33;30.77;;;17.90;;
7759;SDS011;3924;48.830;9.262;2022-12-18T01:30:00;34.37;;;18.33;;
7759;SDS011;3924;48.830;9.262;2022-12-18T01:32:29;35.47;;;19.33;;
7759;SDS011;3924;48.830;9.262;2022-12-18T01:34:56;34.13;;;17.90;;
7759;SDS011;3924;48.830;9.262;2022-12-18T01:37:23;37.17;;;18.63;;
7759;SDS011;3924;48.830;9.262;2022-12-18T01:39:51;34.97;;;19.00;;
7759;SDS011;3924;48.830;9.262;2022-12-18T01:42:20;32.83;;;17.73;;
7759;SDS011;3924;48.830;9.262;2022-12-18T01:47:30;34.47;;;18.20;;
7759;SDS011;3924;48.830;9.262;2022-12-18T01:49:59;37.23;;;19.83;;
7759;SDS011;3924;48.830;9.262;2022-12-18T01:52:31;36.50;;;19.93;;
7759;SDS011;3924;48.830;9.262;2022-12-18T01:54:59;37.07;;;18.47;;
7759;SDS011;3924;48.830;9.262;2022-12-18T01:57:27;36.77;;;18.53;;
7759;SDS011;3924;48.830;9.262;2022-12-18T01:59:55;35.27;;;18.27;;
7759;SDS011;3924;48.830;9.262;2022-12-18T02:02:27;44.57;;;19.63;;
7759;SDS011;3924;48.830;9.262;2022-12-18T02:04:56;33.37;;;17.97;;
7759;SDS011;3924;48.830;9.262;2022-12-18T02:07:29;30.90;;;16.83;;
7759;SDS011;3924;48.830;9.262;2022-12-18T02:10:06;37.63;;;17.80;;
7759;SDS011;3924;48.830;9.262;2022-12-18T02:12:45;38.17;;;18.50;;
7759;SDS011;3924;48.830;9.262;2022-12-18T02:15:22;37.83;;;17.90;;
7759;SDS011;3924;48.830;9.262;2022-12-18T02:17:56;34.03;;;17.67;;
7759;SDS011;3924;48.830;9.262;2022-12-18T02:20:33;37.60;;;16.67;;
7759;SDS011;3924;48.830;9.262;2022-12-18T02:29:05;36.90;;;17.33;;
7759;SDS011;3924;48.830;9.262;2022-12-18T02:31:38;30.00;;;15.93;;
7759;SDS011;3924;48.830;9.262;2022-12-18T02:34:09;34.70;;;16.83;;
7759;SDS011;3924;48.830;9.262;2022-12-18T02:36:38;32.17;;;17.30;;
7759;SDS011;3924;48.830;9.262;2022-12-18T02:39:08;35.47;;;18.77;;
7759;SDS011;3924;48.830;9.262;2022-12-18T02:41:37;32.63;;;17.47;;
7759;SDS011;3924;48.830;9.262;2022-12-18T02:44:09;38.20;;;18.47;;
7759;SDS011;3924;48.830;9.262;2022-12-18T02:46:41;36.03;;;16.37;;
7759;SDS011;3924;48.830;9.262;2022-12-18T02:49:17;35.53;;;18.43;;
7759;SDS011;3924;48.830;9.262;2022-12-18T02:51:55;29.33;;;16.60;;
7759;SDS011;3924;48.830;9.262;2022-12-18T02:57:33;31.37;;;17.90;;
7759;SDS011;3924;48.830;9.262;2022-12-18T03:00:06;36.43;;;18.37;;
7759;SDS011;3924;48.830;9.262;2022-12-18T03:02:48;28.37;;;16.50;;
7759;SDS011;3924;48.830;9.262;2022-12-18T03:05:22;33.17;;;17.63;;
7759;SDS011;3924;48.830;9.262;2022-12-18T03:10:33;36.67;;;17.57;;
7759;SDS011;3924;48.830;9.262;2022-12-18T03:13:05;27.27;;;17.10;;
7759;SDS011;3924;48.830;9.262;2022-12-18T03:15:37;32.80;;;16.97;;
7759;SDS011;3924;48.830;9.262;2022-12-18T03:18:12;32.60;;;18.03;;
7759;SDS011;3924;48.830;9.262;2022-12-18T03:20:53;34.83;;;17.20;;
7759;SDS011;3924;48.830;9.262;2022-12-18T03:23:24;34.80;;;17.47;;
7759;SDS011;3924;48.830;9.262;2022-12-18T03:25:54;27.93;;;17.37;;
7759;SDS011;3924;48.830;9.262;2022-12-18T03:28:33;39.67;;;18.97;;
7759;SDS011;3924;48.830;9.262;2022-12-18T03:31:03;32.47;;;17.97;;
7759;SDS011;3924;48.830;9.262;2022-12-18T03:33:34;33.10;;;18.23;;
7759;SDS011;3924;48.830;9.262;2022-12-18T03:36:06;36.60;;;18.27;;
7759;SDS011;3924;48.830;9.262;2022-12-18T03:38:33;36.00;;;18.70;;
7759;SDS011;3924;48.830;9.262;2022-12-18T03:41:03;31.77;;;19.37;;
7759;SDS011;3924;48.830;9.262;2022-12-18T03:44:20;34.50;;;18.07;;
7759;SDS011;3924;48.830;9.262;2022-12-18T03:52:26;33.80;;;18.43;;
7759;SDS011;3924;48.830;9.262;2022-12-18T03:54:57;33.63;;;17.57;;
7759;SDS011;3924;48.830;9.262;2022-12-18T03:57:27;30.23;;;17.70;;
7759;SDS011;3924;48.830;9.262;2022-12-18T03:59:58;30.33;;;16.37;;
7759;SDS011;3924;48.830;9.262;2022-12-18T04:02:29;28.30;;;15.93;;
7759;SDS011;3924;48.830;9.262;2022-12-18T04:04:58;31.03;;;17.50;;
7759;SDS011;3924;48.830;9.262;2022-12-18T04:07:27;34.90;;;18.10;;
7759;SDS011;3924;48.830;9.262;2022-12-18T04:09:55;29.97;;;17.53;;
7759;SDS011;3924;48.830;9.262;2022-12-18T04:12:25;31.63;;;16.73;;
7759;SDS011;3924;48.830;9.262;2022-12-18T04:14:52;33.30;;;16.40;;
7759;SDS011;3924;48.830;9.262;2022-12-18T04:17:19;32.97;;;16.53;;
7759;SDS011;3924;48.830;9.262;2022-12-18T04:19:46;30.17;;;16.27;;
7759;SDS011;3924;48.830;9.262;2022-12-18T04:22:12;29.33;;;17.07;;
7759;SDS011;3924;48.830;9.262;2022-12-18T04:24:39;28.00;;;15.17;;
7759;SDS011;3924;48.830;9.262;2022-12-18T04:27:05;28.90;;;17.00;;
7759;SDS011;3924;48.830;9.262;2022-12-18T04:29:32;41.40;;;18.33;;
7759;SDS011;3924;48.830;9.262;2022-12-18T04:31:58;43.27;;;19.97;;
7759;SDS011;3924;48.830;9.262;2022-12-18T04:34:25;30.33;;;16.60;;
7759;SDS011;3924;48.830;9.262;2022-12-18T04:36:52;29.03;;;16.43;;
7759;SDS011;3924;48.830;9.262;2022-12-18T04:39:18;29.13;;;16.70;;
7759;SDS011;3924;48.830;9.262;2022-12-18T04:41:45;29.17;;;16.63;;
7759;SDS011;3924;48.830;9.262;2022-12-18T04:44:11;23.57;;;15.57;;
7759;SDS011;3924;48.830;9.262;2022-12-18T04:46:38;31.47;;;15.27;;
7759;SDS011;3924;48.830;9.262;2022-12-18T04:49:04;28.90;;;15.17;;
7759;SDS011;3924;48.830;9.262;2022-12-18T04:51:31;32.77;;;15.80;;
7759;SDS011;3924;48.830;9.262;2022-12-18T04:53:57;28.30;;;15.67;;
7759;SDS011;3924;48.830;9.262;2022-12-18T04:56:24;28.10;;;16.37;;
7759;SDS011;3924;48.830;9.262;2022-12-18T04:58:50;28.47;;;15.37;;
7759;SDS011;3924;48.830;9.262;2022-12-18T05:01:17;25.97;;;15.33;;
7759;SDS011;3924;48.830;9.262;2022-12-18T05:03:44;28.83;;;16.10;;
7759;SDS011;3924;48.830;9.262;2022-12-18T05:06:11;26.00;;;15.87;;
7759;SDS011;3924;48.830;9.262;2022-12-18T05:08:37;26.30;;;15.30;;
7759;SDS011;3924;48.830;9.262;2022-12-18T05:11:05;27.60;;;15.67;;
7759;SDS011;3924;48.830;9.262;2022-12-18T05:13:37;32.37;;;15.93;;
7759;SDS011;3924;48.830;9.262;2022-12-18T05:16:05;22.93;;;13.50;;
7759;SDS011;3924;48.830;9.262;2022-12-18T05:18:32;24.80;;;14.67;;
7759;SDS011;3924;48.830;9.262;2022-12-18T05:20:58;26.43;;;14.50;;
7759;SDS011;3924;48.830;9.262;2022-12-18T05:23:25;28.53;;;15.37;;
7759;SDS011;3924;48.830;9.262;2022-12-18T05:25:52;24.70;;;13.70;;
7759;SDS011;3924;48.830;9.262;2022-12-18T05:28:23;25.97;;;13.27;;
7759;SDS011;3924;48.830;9.262;2022-12-18T05:30:51;25.80;;;14.50;;
7759;SDS011;3924;48.830;9.262;2022-12-18T05:33:20;25.73;;;15.23;;
7759;SDS011;3924;48.830;9.262;2022-12-18T05:35:51;25.23;;;14.33;;
7759;SDS011;3924;48.830;9.262;2022-12-18T05:38:18;25.73;;;13.70;;
7759;SDS011;3924;48.830;9.262;2022-12-18T05:40:47;25.63;;;13.43;;
7759;SDS011;3924;48.830;9.262;2022-12-18T05:43:14;28.90;;;13.63;;
7759;SDS011;3924;48.830;9.262;2022-12-18T05:45:46;28.23;;;14.67;;
7759;SDS011;3924;48.830;9.262;2022-12-18T05:48:14;25.27;;;13.53;;
7759;SDS011;3924;48.830;9.262;2022-12-18T05:50:41;25.20;;;13.70;;
7759;SDS011;3924;48.830;9.262;2022-12-18T05:53:08;24.37;;;12.80;;
7759;SDS011;3924;48.830;9.262;2022-12-18T05:55:36;27.33;;;13.77;;
7759;SDS011;3924;48.830;9.262;2022-12-18T05:58:03;27.03;;;13.97;;
7759;SDS011;3924;48.830;9.262;2022-12-18T06:00:31;26.80;;;14.07;;
7759;SDS011;3924;48.830;9.262;2022-12-18T06:02:59;22.33;;;12.63;;
7759;SDS011;3924;48.830;9.262;2022-12-18T06:05:25;29.00;;;14.13;;
7759;SDS011;3924;48.830;9.262;2022-12-18T06:07:52;23.80;;;13.23;;
7759;SDS011;3924;48.830;9.262;2022-12-18T06:10:19;23.53;;;13.67;;
7759;SDS011;3924;48.830;9.262;2022-12-18T06:12:45;29.87;;;14.47;;
7759;SDS011;3924;48.830;9.262;2022-12-18T06:15:12;24.07;;;13.43;;
7759;SDS011;3924;48.830;9.262;2022-12-18T06:17:39;31.30;;;14.70;;
7759;SDS011;3924;48.830;9.262;2022-12-18T06:20:06;24.87;;;12.90;;
7759;SDS011;3924;48.830;9.262;2022-12-18T06:22:33;25.07;;;12.83;;
7759;SDS011;3924;48.830;9.262;2022-12-18T06:25:01;21.10;;;13.53;;
7759;SDS011;3924;48.830;9.262;2022-12-18T06:27:28;28.77;;;13.33;;
7759;SDS011;3924;48.830;9.262;2022-12-18T06:29:54;28.07;;;13.30;;
7759;SDS011;3924;48.830;9.262;2022-12-18T06:32:20;29.50;;;14.73;;
7759;SDS011;3924;48.830;9.262;2022-12-18T06:34:47;23.50;;;13.33;;
7759;SDS011;3924;48.830;9.262;2022-12-18T06:37:13;27.30;;;12.90;;
7759;SDS011;3924;48.830;9.262;2022-12-18T06:39:40;23.27;;;12.23;;
7759;SDS011;3924;48.830;9.262;2022-12-18T06:42:07;27.63;;;13.70;;
7759;SDS011;3924;48.830;9.262;2022-12-18T06:44:33;26.13;;;12.23;;
7759;SDS011;3924;48.830;9.262;2022-12-18T06:47:00;23.90;;;12.90;;
7759;SDS011;3924;48.830;9.262;2022-12-18T06:49:26;25.87;;;13.07;;
7759;SDS011;3924;48.830;9.262;2022-12-18T06:51:55;25.67;;;13.20;;
7759;SDS011;3924;48.830;9.262;2022-12-18T06:54:22;27.40;;;13.73;;
7759;SDS011;3924;48.830;9.262;2022-12-18T06:56:49;23.37;;;12.97;;
7759;SDS011;3924;48.830;9.262;2022-12-18T06:59:16;27.23;;;13.87;;
7759;SDS011;3924;48.830;9.262;2022-12-18T07:01:42;28.30;;;13.90;;
7759;SDS011;3924;48.830;9.262;2022-12-18T07:04:09;26.37;;;13.37;;
7759;SDS011;3924;48.830;9.262;2022-12-18T07:06:36;23.63;;;13.33;;
7759;SDS011;3924;48.830;9.262;2022-12-18T07:09:02;24.70;;;13.10;;
7759;SDS011;3924;48.830;9.262;2022-12-18T07:11:29;27.43;;;13.97;;
7759;SDS011;3924;48.830;9.262;2022-12-18T07:14:01;30.57;;;14.10;;
7759;SDS011;3924;48.830;9.262;2022-12-18T07:16:27;26.00;;;12.53;;
7759;SDS011;3924;48.830;9.262;2022-12-18T07:18:55;21.30;;;13.40;;
7759;SDS011;3924;48.830;9.262;2022-12-18T07:21:22;33.83;;;14.13;;
7759;SDS011;3924;48.830;9.262;2022-12-18T07:23:50;25.83;;;13.87;;
7759;SDS011;3924;48.830;9.262;2022-12-18T07:26:17;24.20;;;13.50;;
7759;SDS011;3924;48.830;9.262;2022-12-18T07:28:46;30.73;;;14.87;;
7759;SDS011;3924;48.830;9.262;2022-12-18T07:31:17;27.73;;;14.27;;
7759;SDS011;3924;48.830;9.262;2022-12-18T07:33:47;22.27;;;12.90;;
7759;SDS011;3924;48.830;9.262;2022-12-18T07:36:13;25.60;;;14.77;;
7759;SDS011;3924;48.830;9.262;2022-12-18T07:38:40;26.67;;;13.63;;
7759;SDS011;3924;48.830;9.262;2022-12-18T07:41:11;25.40;;;12.37;;
7759;SDS011;3924;48.830;9.262;2022-12-18T07:43:38;23.30;;;14.17;;
7759;SDS011;3924;48.830;9.262;2022-12-18T07:46:07;23.00;;;13.57;;
7759;SDS011;3924;48.830;9.262;2022-12-18T07:48:35;27.43;;;14.37;;
7759;SDS011;3924;48.830;9.262;2022-12-18T07:51:02;25.70;;;13.40;;
7759;SDS011;3924;48.830;9.262;2022-12-18T07:53:31;30.07;;;13.13;;
7759;SDS011;3924;48.830;9.262;2022-12-18T07:56:00;31.57;;;16.10;;
7759;SDS011;3924;48.830;9.262;2022-12-18T07:58:48;28.23;;;15.23;;
7759;SDS011;3924;48.830;9.262;2022-12-18T08:01:15;27.17;;;15.57;;
7759;SDS011;3924;48.830;9.262;2022-12-18T08:03:42;26.63;;;14.93;;
7759;SDS011;3924;48.830;9.262;2022-12-18T08:06:09;27.03;;;15.20;;
7759;SDS011;3924;48.830;9.262;2022-12-18T08:08:36;28.00;;;14.27;;
7759;SDS011;3924;48.830;9.262;2022-12-18T08:11:03;32.47;;;16.50;;
7759;SDS011;3924;48.830;9.262;2022-12-18T08:13:29;21.03;;;13.33;;
7759;SDS011;3924;48.830;9.262;2022-12-18T08:16:00;27.63;;;13.33;;
7759;SDS011;3924;48.830;9.262;2022-12-18T08:18:28;26.10;;;14.03;;
7759;SDS011;3924;48.830;9.262;2022-12-18T08:20:55;29.93;;;15.10;;
7759;SDS011;3924;48.830;9.262;2022-12-18T08:23:22;23.10;;;13.10;;
7759;SDS011;3924;48.830;9.262;2022-12-18T08:25:53;29.43;;;15.33;;
7759;SDS011;3924;48.830;9.262;2022-12-18T08:28:20;30.03;;;15.40;;
7759;SDS011;3924;48.830;9.262;2022-12-18T08:30:46;36.37;;;18.17;;
7759;SDS011;3924;48.830;9.262;2022-12-18T08:33:18;33.73;;;15.07;;
7759;SDS011;3924;48.830;9.262;2022-12-18T08:35:44;29.10;;;15.90;;
7759;SDS011;3924;48.830;9.262;2022-12-18T08:38:11;29.00;;;16.13;;
7759;SDS011;3924;48.830;9.262;2022-12-18T08:40:37;26.13;;;16.03;;
7759;SDS011;3924;48.830;9.262;2022-12-18T08:43:04;31.23;;;16.17;;
7759;SDS011;3924;48.830;9.262;2022-12-18T08:45:49;29.23;;;15.73;;
7759;SDS011;3924;48.830;9.262;2022-12-18T08:48:15;27.73;;;15.43;;
7759;SDS011;3924;48.830;9.262;2022-12-18T08:50:57;32.53;;;16.30;;
7759;SDS011;3924;48.830;9.262;2022-12-18T08:53:24;31.67;;;16.83;;
7759;SDS011;3924;48.830;9.262;2022-12-18T08:55:51;30.87;;;16.43;;
7759;SDS011;3924;48.830;9.262;2022-12-18T08:58:17;32.77;;;15.80;;
7759;SDS011;3924;48.830;9.262;2022-12-18T09:00:44;25.20;;;14.63;;
7759;SDS011;3924;48.830;9.262;2022-12-18T09:03:15;32.13;;;16.43;;
7759;SDS011;3924;48.830;9.262;2022-12-18T09:05:42;29.23;;;15.97;;
7759;SDS011;3924;48.830;9.262;2022-12-18T09:08:09;32.07;;;17.83;;
7759;SDS011;3924;48.830;9.262;2022-12-18T09:10:42;27.93;;;15.30;;
7759;SDS011;3924;48.830;9.262;2022-12-18T09:13:11;28.17;;;15.93;;
7759;SDS011;3924;48.830;9.262;2022-12-18T09:15:41;31.03;;;15.97;;
7759;SDS011;3924;48.830;9.262;2022-12-18T09:18:13;36.63;;;16.17;;
7759;SDS011;3924;48.830;9.262;2022-12-18T09:20:40;32.83;;;17.17;;
7759;SDS011;3924;48.830;9.262;2022-12-18T09:23:07;33.27;;;16.07;;
7759;SDS011;3924;48.830;9.262;2022-12-18T09:25:35;38.80;;;18.27;;
7759;SDS011;3924;48.830;9.262;2022-12-18T09:28:03;31.83;;;15.67;;
7759;SDS011;3924;48.830;9.262;2022-12-18T09:30:40;28.53;;;15.90;;
7759;SDS011;3924;48.830;9.262;2022-12-18T09:33:09;26.47;;;14.40;;
7759;SDS011;3924;48.830;9.262;2022-12-18T09:35:39;30.87;;;16.00;;
7759;SDS011;3924;48.830;9.262;2022-12-18T09:38:07;34.00;;;17.37;;
7759;SDS011;3924;48.830;9.262;2022-12-18T09:40:41;29.37;;;15.93;;
7759;SDS011;3924;48.830;9.262;2022-12-18T09:43:17;28.77;;;15.63;;
7759;SDS011;3924;48.830;9.262;2022-12-18T09:46:06;32.73;;;16.57;;
7759;SDS011;3924;48.830;9.262;2022-12-18T09:48:40;35.97;;;17.87;;
7759;SDS011;3924;48.830;9.262;2022-12-18T09:51:13;31.50;;;15.73;;
7759;SDS011;3924;48.830;9.262;2022-12-18T09:53:44;34.70;;;16.27;;
7759;SDS011;3924;48.830;9.262;2022-12-18T09:56:16;35.10;;;16.93;;
7759;SDS011;3924;48.830;9.262;2022-12-18T09:58:57;32.07;;;16.30;;
7759;SDS011;3924;48.830;9.262;2022-12-18T10:01:26;39.40;;;18.73;;
7759;SDS011;3924;48.830;9.262;2022-12-18T10:04:08;34.13;;;17.70;;
7759;SDS011;3924;48.830;9.262;2022-12-18T10:06:36;34.77;;;17.07;;
7759;SDS011;3924;48.830;9.262;2022-12-18T10:11:49;33.23;;;15.17;;
7759;SDS011;3924;48.830;9.262;2022-12-18T10:23:08;33.23;;;14.60;;
7759;SDS011;3924;48.830;9.262;2022-12-18T10:26:08;32.03;;;16.83;;
7759;SDS011;3924;48.830;9.262;2022-12-18T10:28:37;32.87;;;15.53;;
7759;SDS011;3924;48.830;9.262;2022-12-18T10:31:18;31.67;;;15.27;;
7759;SDS011;3924;48.830;9.262;2022-12-18T10:33:50;32.27;;;14.80;;
7759;SDS011;3924;48.830;9.262;2022-12-18T10:36:16;29.90;;;16.33;;
7759;SDS011;3924;48.830;9.262;2022-12-18T10:38:43;28.80;;;16.20;;
7759;SDS011;3924;48.830;9.262;2022-12-18T10:43:48;30.43;;;16.73;;
7759;SDS011;3924;48.830;9.262;2022-12-18T10:46:15;29.90;;;14.83;;
7759;SDS011;3924;48.830;9.262;2022-12-18T10:51:26;31.23;;;15.80;;
7759;SDS011;3924;48.830;9.262;2022-12-18T10:53:57;32.90;;;15.70;;
7759;SDS011;3924;48.830;9.262;2022-12-18T10:56:29;28.47;;;15.60;;
7759;SDS011;3924;48.830;9.262;2022-12-18T10:59:00;31.13;;;16.93;;
7759;SDS011;3924;48.830;9.262;2022-12-18T11:01:33;31.13;;;17.17;;
7759;SDS011;3924;48.830;9.262;2022-12-18T11:04:19;35.33;;;15.50;;
7759;SDS011;3924;48.830;9.262;2022-12-18T11:06:54;31.93;;;15.43;;
7759;SDS011;3924;48.830;9.262;2022-12-18T11:09:24;32.20;;;16.57;;
7759;SDS011;3924;48.830;9.262;2022-12-18T11:11:56;33.87;;;17.57;;
7759;SDS011;3924;48.830;9.262;2022-12-18T11:17:32;42.73;;;18.17;;
7759;SDS011;3924;48.830;9.262;2022-12-18T11:20:03;32.63;;;16.87;;
7759;SDS011;3924;48.830;9.262;2022-12-18T11:22:32;28.83;;;14.80;;
7759;SDS011;3924;48.830;9.262;2022-12-18T11:25:07;31.17;;;16.27;;
7759;SDS011;3924;48.830;9.262;2022-12-18T11:28:05;34.77;;;16.43;;
7759;SDS011;3924;48.830;9.262;2022-12-18T11:36:43;27.43;;;15.03;;
7759;SDS011;3924;48.830;9.262;2022-12-18T11:39:22;26.97;;;14.80;;
7759;SDS011;3924;48.830;9.262;2022-12-18T11:41:59;30.57;;;14.93;;
7759;SDS011;3924;48.830;9.262;2022-12-18T11:44:41;24.93;;;13.43;;
7759;SDS011;3924;48.830;9.262;2022-12-18T11:50:26;24.90;;;13.17;;
7759;SDS011;3924;48.830;9.262;2022-12-18T11:52:57;27.97;;;14.00;;
7759;SDS011;3924;48.830;9.262;2022-12-18T11:55:34;26.73;;;12.40;;
7759;SDS011;3924;48.830;9.262;2022-12-18T12:06:54;24.97;;;13.40;;
7759;SDS011;3924;48.830;9.262;2022-12-18T12:09:59;25.23;;;13.53;;
7759;SDS011;3924;48.830;9.262;2022-12-18T12:21:35;23.10;;;14.57;;
7759;SDS011;3924;48.830;9.262;2022-12-18T12:24:27;24.77;;;13.10;;
7759;SDS011;3924;48.830;9.262;2022-12-18T12:30:18;28.43;;;14.47;;
7759;SDS011;3924;48.830;9.262;2022-12-18T12:38:49;30.27;;;14.90;;
7759;SDS011;3924;48.830;9.262;2022-12-18T12:41:25;33.10;;;14.33;;
7759;SDS011;3924;48.830;9.262;2022-12-18T12:44:17;29.17;;;13.57;;
7759;SDS011;3924;48.830;9.262;2022-12-18T12:46:52;28.50;;;13.90;;
7759;SDS011;3924;48.830;9.262;2022-12-18T12:49:26;26.60;;;14.43;;
7759;SDS011;3924;48.830;9.262;2022-12-18T12:52:14;37.47;;;15.37;;
7759;SDS011;3924;48.830;9.262;2022-12-18T12:54:58;28.10;;;15.47;;
7759;SDS011;3924;48.830;9.262;2022-12-18T12:57:43;32.30;;;14.13;;
7759;SDS011;3924;48.830;9.262;2022-12-18T13:00:16;29.17;;;13.97;;
7759;SDS011;3924;48.830;9.262;2022-12-18T13:03:13;26.73;;;14.03;;
7759;SDS011;3924;48.830;9.262;2022-12-18T13:06:12;30.17;;;15.90;;
7759;SDS011;3924;48.830;9.262;2022-12-18T13:09:10;28.03;;;14.10;;
7759;SDS011;3924;48.830;9.262;2022-12-18T13:11:41;29.10;;;13.97;;
7759;SDS011;3924;48.830;9.262;2022-12-18T13:14:50;28.67;;;15.30;;
7759;SDS011;3924;48.830;9.262;2022-12-18T13:17:35;34.10;;;13.77;;
7759;SDS011;3924;48.830;9.262;2022-12-18T13:20:12;27.47;;;14.00;;
7759;SDS011;3924;48.830;9.262;2022-12-18T13:22:46;29.00;;;13.47;;
7759;SDS011;3924;48.830;9.262;2022-12-18T13:25:31;28.97;;;16.37;;
7759;SDS011;3924;48.830;9.262;2022-12-18T13:28:06;35.63;;;14.90;;
7759;SDS011;3924;48.830;9.262;2022-12-18T13:30:43;30.20;;;15.67;;
7759;SDS011;3924;48.830;9.262;2022-12-18T13:33:47;28.00;;;15.50;;
7759;SDS011;3924;48.830;9.262;2022-12-18T13:36:35;33.30;;;15.83;;
7759;SDS011;3924;48.830;9.262;2022-12-18T13:44:40;31.07;;;16.37;;
7759;SDS011;3924;48.830;9.262;2022-12-18T13:47:50;28.43;;;16.23;;
7759;SDS011;3924;48.830;9.262;2022-12-18T13:50:27;26.63;;;14.83;;
7759;SDS011;3924;48.830;9.262;2022-12-18T13:53:02;28.47;;;14.80;;
7759;SDS011;3924;48.830;9.262;2022-12-18T13:55:31;30.13;;;15.37;;
7759;SDS011;3924;48.830;9.262;2022-12-18T13:58:05;30.30;;;14.23;;
7759;SDS011;3924;48.830;9.262;2022-12-18T14:00:32;33.80;;;16.53;;
7759;SDS011;3924;48.830;9.262;2022-12-18T14:02:59;29.97;;;15.00;;
7759;SDS011;3924;48.830;9.262;2022-12-18T14:05:29;28.27;;;15.40;;
7759;SDS011;3924;48.830;9.262;2022-12-18T14:08:10;36.70;;;15.80;;
7759;SDS011;3924;48.830;9.262;2022-12-18T14:10:40;35.70;;;16.27;;
7759;SDS011;3924;48.830;9.262;2022-12-18T14:13:19;32.63;;;15.43;;
7759;SDS011;3924;48.830;9.262;2022-12-18T14:15:47;32.30;;;16.03;;
7759;SDS011;3924;48.830;9.262;2022-12-18T14:20:45;31.50;;;14.83;;
7759;SDS011;3924;48.830;9.262;2022-12-18T14:26:27;28.00;;;14.40;;
7759;SDS011;3924;48.830;9.262;2022-12-18T14:28:56;29.83;;;14.37;;
7759;SDS011;3924;48.830;9.262;2022-12-18T14:31:25;28.47;;;14.77;;
7759;SDS011;3924;48.830;9.262;2022-12-18T14:33:53;31.80;;;14.83;;
7759;SDS011;3924;48.830;9.262;2022-12-18T14:36:21;37.30;;;15.13;;
7759;SDS011;3924;48.830;9.262;2022-12-18T14:38:57;28.53;;;15.07;;
7759;SDS011;3924;48.830;9.262;2022-12-18T14:41:26;27.07;;;14.13;;
7759;SDS011;3924;48.830;9.262;2022-12-18T14:43:53;34.90;;;15.40;;
7759;SDS011;3924;48.830;9.262;2022-12-18T14:46:34;29.97;;;16.13;;
7759;SDS011;3924;48.830;9.262;2022-12-18T14:49:04;30.27;;;16.93;;
7759;SDS011;3924;48.830;9.262;2022-12-18T14:51:48;40.30;;;18.07;;
7759;SDS011;3924;48.830;9.262;2022-12-18T14:54:18;36.80;;;17.93;;
7759;SDS011;3924;48.830;9.262;2022-12-18T14:56:47;38.73;;;19.17;;
7759;SDS011;3924;48.830;9.262;2022-12-18T14:59:19;32.90;;;17.73;;
7759;SDS011;3924;48.830;9.262;2022-12-18T15:02:13;40.07;;;19.50;;
7759;SDS011;3924;48.830;9.262;2022-12-18T15:04:44;36.17;;;18.40;;
7759;SDS011;3924;48.830;9.262;2022-12-18T15:09:39;35.27;;;17.40;;
7759;SDS011;3924;48.830;9.262;2022-12-18T15:12:19;35.07;;;16.47;;
7759;SDS011;3924;48.830;9.262;2022-12-18T15:14:52;31.27;;;16.80;;
7759;SDS011;3924;48.830;9.262;2022-12-18T15:17:21;32.93;;;15.63;;
7759;SDS011;3924;48.830;9.262;2022-12-18T15:19:51;28.37;;;14.03;;
7759;SDS011;3924;48.830;9.262;2022-12-18T15:22:25;27.03;;;14.30;;
7759;SDS011;3924;48.830;9.262;2022-12-18T15:24:57;26.77;;;15.37;;
7759;SDS011;3924;48.830;9.262;2022-12-18T15:27:34;30.20;;;13.13;;
7759;SDS011;3924;48.830;9.262;2022-12-18T15:32:34;30.73;;;12.97;;
7759;SDS011;3924;48.830;9.262;2022-12-18T15:37:40;24.50;;;13.33;;
7759;SDS011;3924;48.830;9.262;2022-12-18T15:40:07;32.27;;;14.20;;
7759;SDS011;3924;48.830;9.262;2022-12-18T15:42:37;25.30;;;13.00;;
7759;SDS011;3924;48.830;9.262;2022-12-18T15:45:22;28.50;;;13.27;;
7759;SDS011;3924;48.830;9.262;2022-12-18T15:47:49;31.90;;;13.50;;
7759;SDS011;3924;48.830;9.262;2022-12-18T15:50:15;29.00;;;12.73;;
7759;SDS011;3924;48.830;9.262;2022-12-18T15:52:43;31.47;;;13.43;;
7759;SDS011;3924;48.830;9.262;2022-12-18T15:55:15;27.03;;;13.33;;
7759;SDS011;3924;48.830;9.262;2022-12-18T15:58:03;25.03;;;12.63;;
7759;SDS011;3924;48.830;9.262;2022-12-18T16:00:31;26.93;;;15.37;;
7759;SDS011;3924;48.830;9.262;2022-12-18T16:03:00;25.20;;;14.13;;
7759;SDS011;3924;48.830;9.262;2022-12-18T16:05:26;22.83;;;13.00;;
7759;SDS011;3924;48.830;9.262;2022-12-18T16:07:53;27.47;;;14.37;;
7759;SDS011;3924;48.830;9.262;2022-12-18T16:10:20;31.20;;;15.83;;
7759;SDS011;3924;48.830;9.262;2022-12-18T16:12:46;30.97;;;14.60;;
7759;SDS011;3924;48.830;9.262;2022-12-18T16:15:14;31.00;;;16.30;;
7759;SDS011;3924;48.830;9.262;2022-12-18T16:17:49;36.43;;;16.43;;
7759;SDS011;3924;48.830;9.262;2022-12-18T16:20:16;34.30;;;17.80;;
7759;SDS011;3924;48.830;9.262;2022-12-18T16:22:44;38.93;;;18.77;;
7759;SDS011;3924;48.830;9.262;2022-12-18T16:25:23;32.60;;;17.27;;
7759;SDS011;3924;48.830;9.262;2022-12-18T16:27:51;31.63;;;15.60;;
7759;SDS011;3924;48.830;9.262;2022-12-18T16:30:22;35.97;;;16.23;;
7759;SDS011;3924;48.830;9.262;2022-12-18T16:32:51;38.70;;;17.13;;
7759;SDS011;3924;48.830;9.262;2022-12-18T16:35:17;37.37;;;16.50;;
7759;SDS011;3924;48.830;9.262;2022-12-18T16:37:44;31.13;;;15.87;;
7759;SDS011;3924;48.830;9.262;2022-12-18T16:40:11;28.47;;;15.20;;
7759;SDS011;3924;48.830;9.262;2022-12-18T16:42:40;27.47;;;13.73;;
7759;SDS011;3924;48.830;9.262;2022-12-18T16:45:09;27.83;;;14.50;;
7759;SDS011;3924;48.830;9.262;2022-12-18T16:47:37;30.17;;;14.57;;
7759;SDS011;3924;48.830;9.262;2022-12-18T16:50:04;28.07;;;14.03;;
7759;SDS011;3924;48.830;9.262;2022-12-18T16:52:32;30.93;;;15.47;;